Time;durP1;ratioP1;P1;durP2;ratioP2;P2;SDS_P1;SDS_P2;PMS_P1;PMS_P2;Temp;Humidity;BMP_temperature;BMP_pressure;BME280_temperature;BME280_humidity;BME280_pressure;Samples;Min_cycle;Max_cycle;Signal;HPM_P1;HPM_P2
2020/12/30 00:00:54;;;;;;;21.25;10.30;;;;;;;3.22;78.50;99037.52;1734381;82;25699;-55
2020/12/30 00:03:21;;;;;;;20.68;10.82;;;;;;;3.27;78.55;99054.00;1704750;83;25973;-55
2020/12/30 00:05:48;;;;;;;20.02;10.70;;;;;;;3.25;78.54;99050.31;1734517;82;25712;-62
2020/12/30 00:08:16;;;;;;;19.52;10.43;;;;;;;3.24;78.60;99056.73;1734240;82;25782;-56
2020/12/30 00:10:43;;;;;;;19.25;10.53;;;;;;;3.22;78.59;99056.75;1734276;82;25783;-54
2020/12/30 00:13:10;;;;;;;25.00;10.13;;;;;;;3.19;78.62;99055.47;1725434;82;57334;-56
2020/12/30 00:15:37;;;;;;;18.85;10.43;;;;;;;3.18;78.71;99060.55;1727118;82;26329;-55
2020/12/30 00:18:04;;;;;;;19.10;10.48;;;;;;;3.15;78.70;99054.44;1727390;82;25803;-54
2020/12/30 00:20:31;;;;;;;24.12;10.53;;;;;;;3.12;78.77;99057.16;1727088;82;25902;-51
2020/12/30 00:22:57;;;;;;;23.92;10.60;;;;;;;3.10;78.93;99053.17;1726936;82;25788;-47
2020/12/30 00:25:26;;;;;;;22.20;10.88;;;;;;;3.09;78.96;99067.09;1726891;82;25650;-53
2020/12/30 00:27:52;;;;;;;18.70;10.08;;;;;;;3.08;79.05;99062.03;1727013;82;25812;-55
2020/12/30 00:30:19;;;;;;;18.48;9.70;;;;;;;3.07;79.24;99069.26;1726892;82;25763;-58
2020/12/30 00:32:47;;;;;;;21.37;10.03;;;;;;;3.06;79.23;99070.33;1727043;82;25786;-52
2020/12/30 00:35:16;;;;;;;17.52;9.05;;;;;;;3.04;79.03;99071.16;1726961;82;25698;-55
2020/12/30 00:37:44;;;;;;;19.65;9.10;;;;;;;3.00;79.19;99071.50;1727130;82;25767;-59
2020/12/30 00:40:12;;;;;;;17.05;9.38;;;;;;;2.98;79.23;99073.67;1727068;82;25784;-59
2020/12/30 00:42:39;;;;;;;21.93;9.45;;;;;;;2.95;79.33;99071.02;1726842;82;25597;-62
2020/12/30 00:45:09;;;;;;;17.98;9.43;;;;;;;2.93;79.53;99070.52;1727053;82;26775;-60
2020/12/30 00:47:37;;;;;;;21.68;9.38;;;;;;;2.94;79.52;99075.31;1727267;82;33062;-59
2020/12/30 00:50:06;;;;;;;19.40;9.65;;;;;;;2.94;79.61;99085.45;1727028;82;25832;-60
2020/12/30 00:52:33;;;;;;;22.07;9.75;;;;;;;2.94;79.75;99086.00;1727050;82;25848;-59
2020/12/30 00:55:00;;;;;;;15.70;9.73;;;;;;;2.94;79.81;99086.78;1726952;82;26380;-59
2020/12/30 00:57:27;;;;;;;18.73;9.65;;;;;;;2.96;79.88;99083.83;1727227;82;25705;-60
2020/12/30 00:59:54;;;;;;;15.93;8.83;;;;;;;2.96;79.87;99089.17;1726771;82;26003;-60
2020/12/30 01:02:20;;;;;;;18.50;10.50;;;;;;;2.95;80.01;99096.95;1727099;82;26636;-59
2020/12/30 01:04:47;;;;;;;21.65;10.85;;;;;;;2.98;80.11;99092.38;1727143;82;25705;-61
2020/12/30 01:07:17;;;;;;;18.17;9.75;;;;;;;2.98;80.13;99082.47;1726706;82;25825;-56
2020/12/30 01:09:42;;;;;;;18.07;9.73;;;;;;;3.01;80.18;99077.08;1726638;82;25828;-56
2020/12/30 01:12:09;;;;;;;19.02;10.03;;;;;;;3.06;80.33;99085.02;1704629;82;40110;-62
2020/12/30 01:14:36;;;;;;;17.77;9.53;;;;;;;3.10;80.18;99085.23;1676358;85;25793;-61
2020/12/30 01:17:03;;;;;;;19.17;9.75;;;;;;;3.11;80.09;99084.95;1676515;85;25797;-62
2020/12/30 01:19:29;;;;;;;18.95;8.65;;;;;;;3.14;80.17;99083.05;1676392;85;26055;-59
2020/12/30 01:21:56;;;;;;;16.48;9.40;;;;;;;3.18;80.18;99084.08;1676185;85;25855;-57
2020/12/30 01:24:23;;;;;;;18.75;9.25;;;;;;;3.22;80.16;99074.12;1673919;84;26117;-57
2020/12/30 01:26:50;;;;;;;22.05;9.40;;;;;;;3.26;80.18;99077.27;1674259;84;25840;-61
2020/12/30 01:29:16;;;;;;;17.52;9.75;;;;;;;3.29;80.10;99078.58;1673744;84;25864;-59
2020/12/30 01:31:43;;;;;;;18.77;9.45;;;;;;;3.33;80.07;99080.36;1676264;85;25844;-60
2020/12/30 01:34:10;;;;;;;19.10;9.78;;;;;;;3.36;79.92;99079.00;1680048;84;26399;-61
2020/12/30 01:36:37;;;;;;;18.42;8.93;;;;;;;3.36;79.80;99077.66;1688691;84;25750;-50
2020/12/30 01:39:05;;;;;;;19.05;9.80;;;;;;;3.36;79.76;99072.32;1688526;84;25818;-62
2020/12/30 01:41:33;;;;;;;19.92;9.48;;;;;;;3.36;79.69;99074.44;1649360;86;25711;-61
2020/12/30 01:44:07;;;;;;;20.90;9.83;;;;;;;3.35;79.60;99084.08;1673176;85;25739;-58
2020/12/30 01:46:46;;;;;;;17.23;9.53;;;;;;;3.32;79.44;99099.36;1688634;84;25748;-59
2020/12/30 01:49:17;;;;;;;18.10;8.90;;;;;;;3.26;79.53;99103.99;1650577;86;26345;-53
2020/12/30 01:51:45;;;;;;;17.80;9.88;;;;;;;3.23;79.46;99102.44;1673905;85;25692;-59
2020/12/30 01:54:14;;;;;;;19.75;9.78;;;;;;;3.21;79.71;99098.72;1689703;84;25618;-51
2020/12/30 01:56:42;;;;;;;20.37;9.75;;;;;;;3.20;79.80;99095.78;1690393;84;25850;-55
2020/12/30 01:59:12;;;;;;;20.72;9.18;;;;;;;3.21;79.88;99094.71;1689993;84;27173;-56
2020/12/30 02:01:42;;;;;;;19.77;9.60;;;;;;;3.22;79.91;99092.83;1650759;86;25610;-49
2020/12/30 02:04:11;;;;;;;19.62;9.33;;;;;;;3.21;79.87;99100.61;1674557;85;25638;-56
2020/12/30 02:06:38;;;;;;;21.45;9.23;;;;;;;3.18;79.83;99101.45;1690438;84;26338;-57
2020/12/30 02:09:06;;;;;;;23.15;9.90;;;;;;;3.17;79.92;99104.41;1689759;84;25649;-56
2020/12/30 02:11:34;;;;;;;15.00;8.55;;;;;;;3.15;79.93;99110.55;1690368;84;25744;-55
2020/12/30 02:14:12;;;;;;;17.73;9.03;;;;;;;3.14;79.91;99112.98;1689937;84;26380;-49
2020/12/30 02:16:56;;;;;;;18.67;8.93;;;;;;;3.11;80.03;99109.00;1690465;84;26020;-57
2020/12/30 02:19:23;;;;;;;18.40;8.53;;;;;;;3.09;80.02;99112.51;1689993;84;25271;-46
2020/12/30 02:21:54;;;;;;;18.02;9.18;;;;;;;3.07;80.23;99109.33;1690115;84;25702;-57
2020/12/30 02:24:29;;;;;;;22.00;8.88;;;;;;;3.09;80.40;99111.17;1650453;86;27083;-47
2020/12/30 02:26:57;;;;;;;20.92;9.30;;;;;;;3.10;80.41;99107.95;1674692;85;25936;-56
2020/12/30 02:29:24;;;;;;;13.28;8.25;;;;;;;3.12;80.54;99107.14;1689998;84;25694;-57
2020/12/30 02:31:51;;;;;;;17.23;8.38;;;;;;;3.12;80.58;99103.92;1690051;84;25735;-53
2020/12/30 02:34:18;;;;;;;21.25;9.25;;;;;;;3.14;80.62;99108.98;1689970;84;25638;-53
2020/12/30 02:36:45;;;;;;;13.90;7.92;;;;;;;3.16;80.73;99106.81;1690300;84;27149;-46
2020/12/30 02:39:12;;;;;;;17.85;8.28;;;;;;;3.20;80.81;99108.36;1689809;84;25841;-57
2020/12/30 02:41:39;;;;;;;16.73;8.48;;;;;;;3.19;80.61;99103.56;1650731;86;25578;-53
2020/12/30 02:44:07;;;;;;;14.63;8.28;;;;;;;3.22;80.74;99101.66;1674523;85;25729;-47
2020/12/30 02:46:34;;;;;;;15.90;7.87;;;;;;;3.23;80.72;99110.45;1690139;84;25657;-51
2020/12/30 02:49:01;;;;;;;15.68;8.23;;;;;;;3.24;80.77;99110.72;1689620;84;26260;-51
2020/12/30 02:51:28;;;;;;;16.57;7.50;;;;;;;3.27;80.84;99109.60;1690228;84;25748;-50
2020/12/30 02:53:55;;;;;;;14.03;7.33;;;;;;;3.29;80.95;99115.45;1650229;86;25701;-52
2020/12/30 02:56:22;;;;;;;18.32;7.45;;;;;;;3.31;80.84;99112.48;1674846;85;25646;-46
2020/12/30 02:58:50;;;;;;;13.32;7.67;;;;;;;3.31;80.87;99116.50;1689978;84;25672;-49
2020/12/30 03:01:17;;;;;;;11.10;7.30;;;;;;;3.31;80.76;99115.16;1689982;84;25795;-52
2020/12/30 03:03:44;;;;;;;13.55;7.10;;;;;;;3.30;80.77;99120.24;1689516;84;25699;-52
2020/12/30 03:06:11;;;;;;;14.33;6.70;;;;;;;3.28;80.73;99117.07;1689337;84;25573;-46
2020/12/30 03:08:38;;;;;;;13.95;6.95;;;;;;;3.26;80.84;99118.69;1689744;84;25725;-47
2020/12/30 03:11:07;;;;;;;13.20;6.97;;;;;;;3.27;80.89;99116.80;1690388;84;25678;-52
2020/12/30 03:13:35;;;;;;;14.33;7.70;;;;;;;3.27;80.89;99122.15;1689693;84;25723;-52
2020/12/30 03:16:02;;;;;;;13.62;6.83;;;;;;;3.27;81.01;99114.95;1650571;86;25948;-49
2020/12/30 03:18:29;;;;;;;13.85;6.78;;;;;;;3.28;81.03;99123.75;1674534;85;25728;-49
2020/12/30 03:20:56;;;;;;;14.55;7.60;;;;;;;3.28;81.00;99128.55;1690254;84;25180;-46
2020/12/30 03:23:22;;;;;;;12.37;6.95;;;;;;;3.27;80.98;99124.83;1689795;84;25691;-48
2020/12/30 03:25:49;;;;;;;14.25;7.33;;;;;;;3.26;80.96;99124.59;1690237;84;26209;-48
2020/12/30 03:28:16;;;;;;;12.28;7.15;;;;;;;3.25;81.01;99125.66;1650232;86;25687;-52
2020/12/30 03:30:42;;;;;;;12.60;6.95;;;;;;;3.25;81.15;99122.47;1674604;84;25622;-52
2020/12/30 03:33:09;;;;;;;13.22;6.85;;;;;;;3.25;81.22;99125.66;1689878;84;25597;-52
2020/12/30 03:35:36;;;;;;;16.80;8.00;;;;;;;3.26;81.21;99118.69;1689811;84;25723;-45
2020/12/30 03:38:02;;;;;;;14.03;7.53;;;;;;;3.27;81.12;99123.48;1689991;84;25723;-47
2020/12/30 03:40:29;;;;;;;14.75;7.67;;;;;;;3.24;81.01;99120.86;1650394;86;25695;-44
2020/12/30 03:42:56;;;;;;;13.40;7.83;;;;;;;3.23;81.00;99119.81;1674575;85;26475;-51
2020/12/30 03:45:23;;;;;;;13.03;7.70;;;;;;;3.20;80.98;99115.83;1690138;84;25765;-46
2020/12/30 03:47:49;;;;;;;16.25;8.25;;;;;;;3.17;80.96;99121.77;1650135;86;25693;-49
2020/12/30 03:50:16;;;;;;;18.12;7.83;;;;;;;3.16;81.08;99116.95;1674877;84;27126;-50
2020/12/30 03:52:43;;;;;;;13.62;7.37;;;;;;;3.17;81.19;99111.08;1689797;84;25702;-51
2020/12/30 03:55:09;;;;;;;19.70;7.87;;;;;;;3.16;81.37;99110.81;1689969;84;25627;-50
2020/12/30 03:57:36;;;;;;;15.58;8.68;;;;;;;3.20;81.51;99113.70;1690075;84;25712;-49
2020/12/30 04:00:03;;;;;;;14.47;8.18;;;;;;;3.20;81.36;99129.19;1650445;86;26296;-49
2020/12/30 04:02:30;;;;;;;16.55;7.60;;;;;;;3.19;81.35;99132.95;1674850;85;26358;-49
2020/12/30 04:04:57;;;;;;;13.35;8.25;;;;;;;3.20;81.48;99131.07;1689821;84;25940;-48
2020/12/30 04:07:24;;;;;;;13.78;7.53;;;;;;;3.19;81.33;99135.63;1650458;86;25720;-52
2020/12/30 04:09:51;;;;;;;15.18;7.78;;;;;;;3.16;81.32;99122.84;1674214;85;25701;-47
2020/12/30 04:12:17;;;;;;;15.68;8.15;;;;;;;3.13;81.20;99120.22;1689598;84;25819;-49
2020/12/30 04:14:44;;;;;;;19.00;9.10;;;;;;;3.13;81.29;99119.41;1650282;86;26848;-43
2020/12/30 04:17:11;;;;;;;12.13;7.37;;;;;;;3.11;81.42;99122.36;1674475;85;26353;-53
2020/12/30 04:19:38;;;;;;;11.55;7.33;;;;;;;3.10;81.54;99118.12;1689749;84;25710;-46
2020/12/30 04:22:04;;;;;;;13.95;7.55;;;;;;;3.11;81.80;99119.69;1650047;86;25875;-51
2020/12/30 04:24:31;;;;;;;17.15;8.03;;;;;;;3.11;81.68;99120.23;1674628;85;25723;-52
2020/12/30 04:26:58;;;;;;;14.70;7.90;;;;;;;3.12;81.84;99129.30;1690044;84;26218;-49
2020/12/30 04:29:25;;;;;;;14.68;7.80;;;;;;;3.12;81.92;99135.98;1650217;86;25700;-52
2020/12/30 04:31:51;;;;;;;15.58;8.23;;;;;;;3.14;82.15;99140.49;1674886;85;25651;-50
2020/12/30 04:34:18;;;;;;;16.17;7.90;;;;;;;3.15;82.38;99133.27;1689734;84;25649;-47
2020/12/30 04:36:45;;;;;;;19.17;8.78;;;;;;;3.15;82.44;99130.07;1690223;84;25577;-53
2020/12/30 04:39:11;;;;;;;15.48;8.18;;;;;;;3.18;82.70;99136.19;1689662;84;27323;-52
2020/12/30 04:41:41;;;;;;;13.20;8.00;;;;;;;3.21;82.65;99125.99;1650573;86;25813;-51
2020/12/30 04:44:07;;;;;;;17.90;8.73;;;;;;;3.21;82.91;99134.80;1674519;85;34913;-50
2020/12/30 04:46:36;;;;;;;13.38;7.78;;;;;;;3.24;82.89;99142.24;1690226;84;26327;-52
2020/12/30 04:49:03;;;;;;;12.88;7.17;;;;;;;3.25;82.89;99139.02;1689843;84;25676;-51
2020/12/30 04:51:30;;;;;;;15.53;7.53;;;;;;;3.26;82.86;99129.93;1689974;84;26622;-51
2020/12/30 04:54:00;;;;;;;12.45;7.42;;;;;;;3.28;83.11;99123.20;1650059;86;25839;-50
2020/12/30 04:56:58;;;;;;;13.90;7.53;;;;;;;3.32;83.23;99130.09;1674900;85;26186;-51
2020/12/30 04:59:32;;;;;;;12.98;7.08;;;;;;;3.35;83.34;99134.34;1690087;84;25364;-49
2020/12/30 05:02:13;;;;;;;15.10;7.42;;;;;;;3.39;83.40;99137.23;1690060;84;25731;-52
2020/12/30 05:04:40;;;;;;;13.62;7.03;;;;;;;3.43;83.54;99142.80;1690180;84;25952;-43
2020/12/30 05:07:14;;;;;;;13.85;6.97;;;;;;;3.43;83.50;99146.25;1689958;84;25769;-51
2020/12/30 05:09:44;;;;;;;12.28;7.35;;;;;;;3.46;83.64;99153.70;1689992;84;25741;-51
2020/12/30 05:12:18;;;;;;;12.33;7.35;;;;;;;3.49;83.84;99157.14;1650741;86;26027;-51
2020/12/30 05:14:46;;;;;;;12.50;6.87;;;;;;;3.52;83.97;99157.91;1674595;85;25647;-51
2020/12/30 05:17:15;;;;;;;11.78;7.05;;;;;;;3.56;84.13;99164.80;1690187;84;26285;-46
2020/12/30 05:19:44;;;;;;;11.08;6.80;;;;;;;3.58;84.05;99162.63;1689855;84;25669;-53
2020/12/30 05:22:19;;;;;;;10.67;7.03;;;;;;;3.61;84.10;99167.40;1690552;84;25804;-51
2020/12/30 05:24:48;;;;;;;14.85;7.75;;;;;;;3.63;84.21;99162.55;1686925;84;25712;-53
2020/12/30 05:27:16;;;;;;;16.12;8.35;;;;;;;3.66;84.40;99170.52;1690261;84;25791;-52
2020/12/30 05:29:50;;;;;;;15.20;7.97;;;;;;;3.70;84.58;99182.25;1668235;84;26205;-50
2020/12/30 05:32:19;;;;;;;13.15;7.33;;;;;;;3.72;84.82;99180.07;1690071;84;26303;-49
2020/12/30 05:34:47;;;;;;;13.38;7.37;;;;;;;3.74;84.96;99179.23;1690047;84;25998;-46
2020/12/30 05:37:17;;;;;;;14.83;8.00;;;;;;;3.76;85.18;99186.42;1689959;84;25770;-49
2020/12/30 05:39:44;;;;;;;13.32;7.60;;;;;;;3.79;85.11;99177.81;1650758;86;25678;-52
2020/12/30 05:42:19;;;;;;;15.23;8.35;;;;;;;3.82;85.33;99184.48;1674901;85;26640;-44
2020/12/30 05:44:48;;;;;;;17.00;8.25;;;;;;;3.85;85.66;99181.23;1690283;84;25623;-45
2020/12/30 05:47:25;;;;;;;13.43;7.50;;;;;;;3.87;86.04;99177.71;1690440;84;28813;-42
2020/12/30 05:49:54;;;;;;;15.08;8.08;;;;;;;3.90;85.79;99177.14;1690172;84;25819;-53
2020/12/30 05:52:26;;;;;;;12.75;7.28;;;;;;;3.92;86.25;99179.76;1690446;84;25563;-53
2020/12/30 05:54:59;;;;;;;16.40;8.25;;;;;;;3.96;86.27;99180.52;1690060;84;25712;-53
2020/12/30 05:57:34;;;;;;;14.38;7.80;;;;;;;3.98;86.46;99185.03;1650566;86;25625;-48
2020/12/30 06:00:08;;;;;;;15.78;8.78;;;;;;;4.02;86.30;99178.81;1674642;85;25678;-47
2020/12/30 06:02:41;;;;;;;14.65;6.95;;;;;;;4.04;86.32;99187.33;1690168;84;26310;-53
2020/12/30 06:05:18;;;;;;;10.80;6.85;;;;;;;4.09;86.36;99189.14;1650328;86;25733;-52
2020/12/30 06:07:48;;;;;;;14.65;6.85;;;;;;;4.10;86.62;99188.85;1674782;85;26258;-49
2020/12/30 06:10:19;;;;;;;15.45;7.37;;;;;;;4.15;86.40;99189.30;1689897;84;25868;-47
2020/12/30 06:12:58;;;;;;;15.55;7.03;;;;;;;4.16;86.51;99188.22;1689570;84;25574;-45
2020/12/30 06:15:28;;;;;;;12.80;6.90;;;;;;;4.19;86.74;99192.17;1689449;84;25682;-48
2020/12/30 06:18:07;;;;;;;10.13;6.37;;;;;;;4.22;86.80;99187.58;1688582;84;25747;-51
2020/12/30 06:20:38;;;;;;;15.03;7.17;;;;;;;4.24;86.76;99185.39;1667927;84;26812;-55
2020/12/30 06:23:14;;;;;;;13.25;6.80;;;;;;;4.28;86.81;99179.72;1660794;86;25835;-54
2020/12/30 06:25:44;;;;;;;15.50;7.62;;;;;;;4.28;86.75;99184.52;1689794;84;25752;-55
2020/12/30 06:28:20;;;;;;;13.13;7.65;;;;;;;4.31;86.65;99177.80;1689377;84;25764;-56
2020/12/30 06:30:50;;;;;;;15.93;8.68;;;;;;;4.33;86.57;99177.52;1689913;84;25902;-53
2020/12/30 06:33:22;;;;;;;18.02;10.45;;;;;;;4.33;86.56;99178.30;1689628;84;26492;-55
2020/12/30 06:35:55;;;;;;;18.07;9.48;;;;;;;4.34;86.53;99182.55;1650066;86;25707;-56
2020/12/30 06:38:29;;;;;;;24.43;11.28;;;;;;;4.35;86.52;99180.13;1668432;85;26026;-55
2020/12/30 06:41:04;;;;;;;17.32;10.35;;;;;;;4.36;86.57;99180.91;1669392;85;25692;-55
2020/12/30 06:43:43;;;;;;;21.80;10.95;;;;;;;4.37;86.55;99190.55;1669138;84;25748;-56
2020/12/30 06:46:26;;;;;;;22.95;11.50;;;;;;;4.38;86.56;99192.94;1669299;85;26692;-56
2020/12/30 06:49:00;;;;;;;22.73;10.98;;;;;;;4.39;86.56;99195.88;1666774;85;25560;-52
2020/12/30 06:51:29;;;;;;;21.90;12.00;;;;;;;4.40;86.49;99204.14;1668015;85;25762;-47
2020/12/30 06:53:56;;;;;;;;;;;;;;;4.40;86.42;99202.02;1648047;85;25720;-50
2020/12/30 06:56:46;;;;;;;31.15;15.13;;;;;;;4.39;86.43;99203.91;1662220;86;25836;-54
2020/12/30 06:59:19;;;;;;;32.63;17.32;;;;;;;4.37;86.40;99205.27;1661939;86;25734;-44
2020/12/30 07:02:03;;;;;;;42.05;19.98;;;;;;;4.36;86.41;99207.16;1661214;86;25638;-55
2020/12/30 07:04:34;;;;;;;37.60;17.60;;;;;;;4.35;86.41;99213.59;1662014;86;25747;-53
2020/12/30 07:07:08;;;;;;;41.33;20.30;;;;;;;4.34;86.50;99213.88;1662140;86;25733;-56
2020/12/30 07:09:40;;;;;;;25.52;15.65;;;;;;;4.33;86.52;99212.31;1658191;86;25679;-52
2020/12/30 07:12:09;;;;;;;25.48;14.95;;;;;;;4.29;86.65;99212.89;1662329;86;26031;-56
2020/12/30 07:14:37;;;;;;;22.45;14.15;;;;;;;4.31;86.85;99205.91;1661847;86;25775;-55
2020/12/30 07:17:07;;;;;;;27.13;14.50;;;;;;;4.30;86.87;99196.28;1662229;86;25737;-55
2020/12/30 07:19:38;;;;;;;;;;;;;;;4.32;86.92;99191.42;1664398;86;26383;-55
2020/12/30 07:22:07;;;;;;;24.82;13.65;;;;;;;4.33;87.03;99183.66;1677144;85;25670;-55
2020/12/30 07:24:40;;;;;;;;;;;;;;;4.34;87.05;99178.53;1675070;85;27464;-55
2020/12/30 07:27:13;;;;;;;19.05;12.18;;;;;;;4.36;87.11;99170.20;1674624;85;25575;-56
2020/12/30 07:29:42;;;;;;;25.68;13.53;;;;;;;4.36;87.25;99171.02;1674765;85;25864;-56
2020/12/30 07:32:10;;;;;;;23.85;13.88;;;;;;;4.39;87.11;99165.60;1674782;85;33402;-55
2020/12/30 07:34:43;;;;;;;22.32;12.90;;;;;;;4.40;87.02;99169.33;1692770;84;25794;-57
2020/12/30 07:37:11;;;;;;;23.18;12.90;;;;;;;4.42;87.03;99178.41;1668936;85;25797;-45
2020/12/30 07:39:42;;;;;;;23.00;12.80;;;;;;;4.43;87.03;99167.96;1669050;85;25669;-54
2020/12/30 07:42:19;;;;;;;22.30;12.13;;;;;;;4.45;87.03;99166.56;1669347;85;25781;-55
2020/12/30 07:44:50;;;;;;;19.05;12.70;;;;;;;4.47;87.06;99167.61;1669129;85;25710;-48
2020/12/30 07:47:19;;;;;;;21.52;12.30;;;;;;;4.50;87.00;99171.03;1669167;85;25767;-56
2020/12/30 07:49:46;;;;;;;22.77;12.40;;;;;;;4.52;86.85;99170.19;1669068;85;26650;-56
2020/12/30 07:52:14;;;;;;;22.42;11.73;;;;;;;4.51;86.78;99171.27;1669124;85;25734;-51
2020/12/30 07:54:41;;;;;;;31.87;18.98;;;;;;;4.52;86.71;99170.19;1668765;85;26370;-55
2020/12/30 07:57:11;;;;;;;44.10;24.30;;;;;;;4.52;86.70;99166.17;1669145;85;25706;-45
2020/12/30 07:59:40;;;;;;;25.90;16.07;;;;;;;4.53;86.76;99161.60;1668971;84;26252;-48
2020/12/30 08:02:13;;;;;;;20.65;12.75;;;;;;;4.56;86.81;99168.50;1669072;85;26017;-55
2020/12/30 08:04:41;;;;;;;21.50;11.90;;;;;;;4.57;86.84;99164.73;1668987;85;25857;-55
2020/12/30 08:07:16;;;;;;;22.22;13.13;;;;;;;4.60;86.87;99165.49;1668887;84;25734;-53
2020/12/30 08:09:45;;;;;;;19.12;11.43;;;;;;;4.63;86.93;99169.45;1668814;85;26371;-49
2020/12/30 08:12:14;;;;;;;19.32;11.55;;;;;;;4.65;86.99;99173.43;1669021;85;29514;-56
2020/12/30 08:14:44;;;;;;;22.82;12.95;;;;;;;4.68;86.98;99179.55;1669097;85;25952;-55
2020/12/30 08:17:15;;;;;;;17.87;11.33;;;;;;;4.69;86.88;99168.27;1669149;85;25774;-52
2020/12/30 08:19:48;;;;;;;20.20;12.03;;;;;;;4.73;87.02;99167.12;1669070;85;25718;-50
2020/12/30 08:22:25;;;;;;;21.57;11.93;;;;;;;4.75;87.03;99165.75;1669208;85;25730;-46
2020/12/30 08:24:57;;;;;;;18.65;11.65;;;;;;;4.77;87.04;99169.48;1669112;85;25726;-53
2020/12/30 08:27:29;;;;;;;22.62;13.03;;;;;;;4.79;86.96;99168.08;1668978;85;26757;-43
2020/12/30 08:29:59;;;;;;;21.17;12.65;;;;;;;4.82;87.07;99174.74;1668950;84;26248;-54
2020/12/30 08:32:38;;;;;;;17.70;12.70;;;;;;;4.84;87.00;99168.53;1669302;85;25727;-44
2020/12/30 08:35:23;;;;;;;23.85;13.05;;;;;;;4.85;87.01;99175.46;1668997;85;25724;-46
2020/12/30 08:38:17;;;;;;;20.72;12.33;;;;;;;4.87;86.92;99178.66;1645500;85;25738;-49
2020/12/30 08:40:52;;;;;;;18.98;11.65;;;;;;;4.89;86.95;99174.31;1667859;85;25983;-51
2020/12/30 08:43:43;;;;;;;22.32;13.18;;;;;;;4.90;86.92;99167.88;1668902;85;25848;-53
2020/12/30 08:46:25;;;;;;;25.80;13.70;;;;;;;4.92;87.02;99169.70;1669100;85;25587;-55
2020/12/30 08:48:55;;;;;;;26.50;15.38;;;;;;;4.94;87.12;99160.81;1668913;85;26313;-54
2020/12/30 08:51:34;;;;;;;27.25;17.92;;;;;;;4.96;87.13;99164.80;1669170;85;25858;-51
2020/12/30 08:54:01;;;;;;;28.87;16.75;;;;;;;4.98;87.18;99169.86;1668845;85;26819;-50
2020/12/30 08:56:28;;;;;;;25.48;14.93;;;;;;;5.00;87.11;99164.99;1669261;85;25750;-54
2020/12/30 08:58:57;;;;;;;32.70;17.77;;;;;;;5.03;87.27;99161.72;1668804;84;25659;-56
2020/12/30 09:01:26;;;;;;;25.45;17.32;;;;;;;5.08;87.42;99166.98;1664699;84;29828;-56
2020/12/30 09:03:55;;;;;;;31.03;18.13;;;;;;;5.13;87.44;99169.55;1667729;85;25680;-55
2020/12/30 09:06:28;;;;;;;27.13;18.00;;;;;;;5.17;87.40;99174.55;1639127;86;25805;-49
2020/12/30 09:08:59;;;;;;;28.02;17.75;;;;;;;5.20;87.30;99173.17;1638744;87;25850;-56
2020/12/30 09:11:26;;;;;;;31.10;18.65;;;;;;;5.23;87.41;99176.04;1636313;87;25899;-54
2020/12/30 09:13:52;;;;;;;32.85;20.80;;;;;;;5.26;87.28;99173.84;1639330;86;25798;-54
2020/12/30 09:16:19;;;;;;;36.65;21.45;;;;;;;5.30;87.33;99172.16;1638711;87;26455;-53
2020/12/30 09:18:49;;;;;;;37.80;22.27;;;;;;;5.33;87.35;99165.65;1633573;86;26191;-51
2020/12/30 09:21:25;;;;;;;40.20;22.48;;;;;;;5.34;87.09;99163.20;1645126;85;26357;-46
2020/12/30 09:23:51;;;;;;;41.48;22.50;;;;;;;5.34;87.03;99160.52;1647339;85;25826;-53
2020/12/30 09:26:29;;;;;;;43.08;23.62;;;;;;;5.35;86.90;99158.09;1647671;85;25899;-52
2020/12/30 09:28:56;;;;;;;40.08;23.05;;;;;;;5.36;86.89;99161.03;1643557;85;25678;-53
2020/12/30 09:31:23;;;;;;;43.42;23.38;;;;;;;5.37;86.81;99160.48;1649188;85;26427;-54
2020/12/30 09:33:50;;;;;;;41.35;23.80;;;;;;;5.40;87.11;99159.88;1648786;85;25807;-53
2020/12/30 09:36:16;;;;;;;40.58;23.47;;;;;;;5.43;86.91;99151.20;1648907;85;25845;-54
2020/12/30 09:38:43;;;;;;;37.50;22.52;;;;;;;5.47;87.11;99148.18;1651424;85;26599;-54
2020/12/30 09:41:14;;;;;;;43.48;21.68;;;;;;;5.51;87.03;99134.40;1651886;86;25716;-53
2020/12/30 09:43:46;;;;;;;38.80;22.98;;;;;;;5.52;86.70;99137.34;1651758;86;25841;-53
2020/12/30 09:46:22;;;;;;;32.65;20.90;;;;;;;5.56;87.02;99135.62;1651880;86;26861;-55
2020/12/30 09:48:50;;;;;;;34.48;21.30;;;;;;;5.59;86.84;99130.21;1651995;86;26556;-54
2020/12/30 09:51:17;;;;;;;38.17;22.02;;;;;;;5.60;86.72;99135.28;1651829;86;26432;-52
2020/12/30 09:53:44;;;;;;;32.45;20.17;;;;;;;5.65;86.83;99132.22;1651285;86;25894;-54
2020/12/30 09:56:14;;;;;;;27.27;18.85;;;;;;;5.67;86.52;99131.36;1651207;86;25825;-54
2020/12/30 09:58:41;;;;;;;32.13;18.85;;;;;;;5.64;86.08;99126.63;1652379;86;25791;-55
2020/12/30 10:01:07;;;;;;;28.90;18.82;;;;;;;5.61;86.15;99125.33;1652244;86;25732;-54
2020/12/30 10:03:35;;;;;;;32.23;18.32;;;;;;;5.63;86.24;99129.84;1668950;84;29293;-54
2020/12/30 10:06:02;;;;;;;33.08;18.65;;;;;;;5.65;86.15;99130.88;1717009;83;25748;-55
2020/12/30 10:08:28;;;;;;;34.45;19.73;;;;;;;5.63;85.96;99121.00;1673363;85;25840;-55
2020/12/30 10:10:55;;;;;;;30.88;17.70;;;;;;;5.60;85.76;99119.71;1673629;85;25681;-55
2020/12/30 10:13:22;;;;;;;28.92;18.00;;;;;;;5.54;85.66;99115.02;1673375;85;25965;-54
2020/12/30 10:15:49;;;;;;;27.27;16.40;;;;;;;5.54;85.84;99111.55;1673489;85;26415;-53
2020/12/30 10:18:16;;;;;;;29.02;17.02;;;;;;;5.53;85.84;99116.66;1716728;82;25852;-55
2020/12/30 10:20:42;;;;;;;26.80;16.97;;;;;;;5.54;85.93;99116.92;1703449;83;26264;-54
2020/12/30 10:23:09;;;;;;;27.48;16.77;;;;;;;5.51;85.86;99110.26;1703302;84;26446;-55
2020/12/30 10:25:36;;;;;;;29.30;16.30;;;;;;;5.50;85.84;99103.33;1703410;83;26855;-54
2020/12/30 10:28:02;;;;;;;30.37;18.15;;;;;;;5.48;85.80;99101.47;1703418;84;26118;-55
2020/12/30 10:30:29;;;;;;;30.27;17.65;;;;;;;5.48;85.88;99108.73;1754602;81;25770;-53
2020/12/30 10:32:56;;;;;;;28.87;17.55;;;;;;;5.47;85.92;99105.27;1726931;83;26673;-54
2020/12/30 10:35:23;;;;;;;29.85;16.67;;;;;;;5.49;86.11;99104.41;1726582;83;26409;-54
2020/12/30 10:37:51;;;;;;;33.80;18.87;;;;;;;5.51;86.15;99112.16;1751120;81;25728;-54
2020/12/30 10:40:19;;;;;;;32.23;20.17;;;;;;;5.52;86.20;99109.73;1723644;83;25748;-54
2020/12/30 10:42:46;;;;;;;31.63;18.80;;;;;;;5.50;86.00;99112.72;1739756;82;25814;-55
2020/12/30 10:45:13;;;;;;;29.87;17.92;;;;;;;5.49;86.06;99113.80;1739331;82;26498;-54
2020/12/30 10:47:41;;;;;;;25.55;16.17;;;;;;;5.49;86.13;99112.45;1739187;82;25715;-55
2020/12/30 10:50:07;;;;;;;27.45;16.67;;;;;;;5.47;86.07;99106.61;1739342;82;25862;-53
2020/12/30 10:52:34;;;;;;;29.30;17.30;;;;;;;5.46;86.00;99102.33;1739432;82;25674;-53
2020/12/30 10:55:01;;;;;;;30.35;17.02;;;;;;;5.48;86.26;99104.72;1739398;82;25758;-52
2020/12/30 10:57:27;;;;;;;28.10;17.32;;;;;;;5.49;86.14;99095.58;1739463;82;25992;-55
2020/12/30 10:59:54;;;;;;;30.60;18.02;;;;;;;5.49;86.21;99099.61;1739168;82;26570;-53
2020/12/30 11:02:21;;;;;;;30.35;17.07;;;;;;;5.49;86.10;99103.07;1735013;82;25863;-53
2020/12/30 11:04:48;;;;;;;30.25;17.07;;;;;;;5.48;86.13;99092.64;1739169;82;25773;-56
2020/12/30 11:07:14;;;;;;;31.77;19.00;;;;;;;5.47;86.08;99086.50;1739209;82;25937;-56
2020/12/30 11:09:43;;;;;;;34.33;17.87;;;;;;;5.46;86.02;99091.60;1739308;82;26504;-56
2020/12/30 11:12:09;;;;;;;34.95;19.23;;;;;;;5.46;86.04;99087.58;1739214;82;26421;-55
2020/12/30 11:14:36;;;;;;;30.72;18.05;;;;;;;5.47;86.14;99088.39;1739379;82;25804;-57
2020/12/30 11:17:03;;;;;;;32.35;18.15;;;;;;;5.46;86.01;99083.55;1739222;82;25897;-57
2020/12/30 11:19:30;;;;;;;32.25;18.65;;;;;;;5.43;85.88;99086.31;1739333;82;25767;-56
2020/12/30 11:21:56;;;;;;;30.48;18.50;;;;;;;5.41;85.89;99073.77;1739088;82;26380;-55
2020/12/30 11:24:23;;;;;;;31.45;18.42;;;;;;;5.40;85.86;99073.50;1739224;82;25697;-56
2020/12/30 11:26:50;;;;;;;31.50;18.77;;;;;;;5.42;85.96;99071.86;1739233;82;25936;-60
2020/12/30 11:29:17;;;;;;;30.97;19.45;;;;;;;5.39;85.78;99060.40;1739399;82;25993;-57
2020/12/30 11:31:44;;;;;;;31.42;19.48;;;;;;;5.38;85.74;99056.94;1739412;82;26103;-60
2020/12/30 11:34:12;;;;;;;32.65;18.10;;;;;;;5.36;85.61;99056.98;1739109;82;25920;-55
2020/12/30 11:36:39;;;;;;;29.40;19.02;;;;;;;5.34;85.70;99044.43;1739392;82;25689;-54
2020/12/30 11:39:06;;;;;;;31.85;18.90;;;;;;;5.36;85.92;99052.95;1739030;82;25670;-58